Rocksprings, Texas
Current Conditions -  °F | °C
As of 7:10 PM on Saturday 25 Oct 2014 (Local Time) from KECU Reporting Station
Clear Clear  
Wind Chill: 23°   Ceiling: Unl
Heat Index: 23°   Visibility: 10mi
Dew Point: 11°   Wind: 3mph
Humidity: 47%   Direction: 150°SSE
Pressure: 30.16"   Gusts: NA
Location:  30.02°N, 100.21°W
Report Text: KECU 260010Z AUTO 15003KT 10SM CLR 23/11 A3016 RMK AO2
Loading
Personal Weather Stations






























Interactive Weather Map
Tropical Storm Tracking
New forecast layout! Learn more

10-Day Weather Forecast

Advertisements
Track Severe Weather on mobile